sensor_id;sensor_type;location;lat;lon;timestamp;P1;P2;P0
79317;PMS7003;68779;50.036;19.964;2023-06-10T00:11:33;24;21;14
79317;PMS7003;68779;50.036;19.964;2023-06-10T00:41:48;21;20;14
79317;PMS7003;68779;50.036;19.964;2023-06-10T01:42:29;26;22;15
79317;PMS7003;68779;50.036;19.964;2023-06-10T02:12:43;26;24;18
79317;PMS7003;68779;50.036;19.964;2023-06-10T02:42:57;26;25;17
79317;PMS7003;68779;50.036;19.964;2023-06-10T03:13:11;32;27;20
79317;PMS7003;68779;50.036;19.964;2023-06-10T03:43:25;28;25;18
79317;PMS7003;68779;50.036;19.964;2023-06-10T04:13:41;28;25;19
79317;PMS7003;68779;50.036;19.964;2023-06-10T04:43:57;33;28;19
79317;PMS7003;68779;50.036;19.964;2023-06-10T05:14:14;25;24;18
79317;PMS7003;68779;50.036;19.964;2023-06-10T05:44:33;24;22;16
79317;PMS7003;68779;50.036;19.964;2023-06-10T06:14:48;23;20;16
79317;PMS7003;68779;50.036;19.964;2023-06-10T06:45:03;20;20;15
79317;PMS7003;68779;50.036;19.964;2023-06-10T07:15:19;15;15;11
79317;PMS7003;68779;50.036;19.964;2023-06-10T07:45:35;18;17;12
79317;PMS7003;68779;50.036;19.964;2023-06-10T08:15:51;17;17;13
79317;PMS7003;68779;50.036;19.964;2023-06-10T08:46:08;15;15;13
79317;PMS7003;68779;50.036;19.964;2023-06-10T09:16:26;18;17;13
79317;PMS7003;68779;50.036;19.964;2023-06-10T10:03:56;26;25;14
79317;PMS7003;68779;50.036;19.964;2023-06-10T10:34:13;15;15;12
79317;PMS7003;68779;50.036;19.964;2023-06-10T11:04:32;13;12;10
79317;PMS7003;68779;50.036;19.964;2023-06-10T11:34:51;14;13;12
79317;PMS7003;68779;50.036;19.964;2023-06-10T12:35:27;8;8;5
79317;PMS7003;68779;50.036;19.964;2023-06-10T13:05:41;8;8;7
79317;PMS7003;68779;50.036;19.964;2023-06-10T13:35:56;7;7;5
79317;PMS7003;68779;50.036;19.964;2023-06-10T14:06:09;4;4;3
79317;PMS7003;68779;50.036;19.964;2023-06-10T14:36:28;6;5;5
79317;PMS7003;68779;50.036;19.964;2023-06-10T15:06:43;5;5;4
79317;PMS7003;68779;50.036;19.964;2023-06-10T15:36:57;4;4;3
79317;PMS7003;68779;50.036;19.964;2023-06-10T16:07:14;8;8;7
79317;PMS7003;68779;50.036;19.964;2023-06-10T16:37:28;13;12;8
79317;PMS7003;68779;50.036;19.964;2023-06-10T17:07:44;10;10;7
79317;PMS7003;68779;50.036;19.964;2023-06-10T17:38:03;8;8;7
79317;PMS7003;68779;50.036;19.964;2023-06-10T18:38:46;11;11;10
79317;PMS7003;68779;50.036;19.964;2023-06-10T19:09:00;15;14;11
79317;PMS7003;68779;50.036;19.964;2023-06-10T19:39:14;9;9;7
79317;PMS7003;68779;50.036;19.964;2023-06-10T20:09:28;9;9;7
79317;PMS7003;68779;50.036;19.964;2023-06-10T20:39:41;12;11;9
79317;PMS7003;68779;50.036;19.964;2023-06-10T21:09:55;19;19;14
79317;PMS7003;68779;50.036;19.964;2023-06-10T21:40:12;14;13;10
79317;PMS7003;68779;50.036;19.964;2023-06-10T22:10:27;11;10;7
79317;PMS7003;68779;50.036;19.964;2023-06-10T22:40:46;14;14;11
79317;PMS7003;68779;50.036;19.964;2023-06-10T23:11:01;17;16;12
79317;PMS7003;68779;50.036;19.964;2023-06-10T23:41:15;17;16;12
